createdAt,value
2018-06-01T00:00:50.696Z,0.143
2018-06-01T00:02:49.820Z,0.211
2018-06-01T00:04:50.193Z,0.143
2018-06-01T00:06:50.486Z,0.120
2018-06-01T00:08:50.668Z,0.171
2018-06-01T00:10:49.908Z,0.108
2018-06-01T00:12:50.072Z,0.165
2018-06-01T00:14:50.170Z,0.125
2018-06-01T00:16:50.399Z,0.125
2018-06-01T00:18:50.505Z,0.171
2018-06-01T00:20:50.628Z,0.165
2018-06-01T00:22:50.731Z,0.120
2018-06-01T00:24:49.847Z,0.148
2018-06-01T00:26:50.049Z,0.080
2018-06-01T00:28:50.183Z,0.137
2018-06-01T00:30:50.369Z,0.160
2018-06-01T00:32:50.501Z,0.143
2018-06-01T00:34:49.813Z,0.154
2018-06-01T00:36:50.146Z,0.143
2018-06-01T00:38:50.290Z,0.097
2018-06-01T00:40:50.454Z,0.154
2018-06-01T00:42:50.538Z,0.154
2018-06-01T00:44:50.670Z,0.154
2018-06-01T00:46:49.909Z,0.182
2018-06-01T00:48:50.054Z,0.103
2018-06-01T00:50:50.306Z,0.211
2018-06-01T00:52:50.468Z,0.148
2018-06-01T00:54:50.640Z,0.108
2018-06-01T00:56:49.855Z,0.154
2018-06-01T00:58:50.007Z,0.171
2018-06-01T01:00:50.224Z,0.165
2018-06-01T01:02:50.391Z,0.165
2018-06-01T01:04:49.892Z,0.177
2018-06-01T01:06:50.074Z,0.108
2018-06-01T01:08:50.239Z,0.137
2018-06-01T01:10:50.356Z,0.125
2018-06-01T01:12:50.510Z,0.160
2018-06-01T01:14:50.633Z,0.148
2018-06-01T01:16:49.901Z,0.188
2018-06-01T01:18:50.076Z,0.171
2018-06-01T01:20:50.238Z,0.171
2018-06-01T01:22:50.472Z,0.131
2018-06-01T01:24:50.601Z,0.137
2018-06-01T01:26:49.889Z,0.120
2018-06-01T01:28:50.267Z,0.171
2018-06-01T01:30:50.394Z,0.182
2018-06-01T01:32:50.542Z,0.188
2018-06-01T01:34:49.870Z,0.125
2018-06-01T01:36:50.220Z,0.154
2018-06-01T01:38:50.332Z,0.217
2018-06-01T01:40:50.480Z,0.171
2018-06-01T01:42:50.603Z,0.188
2018-06-01T01:44:50.774Z,0.125
2018-06-01T01:46:50.126Z,0.131
2018-06-01T01:48:50.340Z,0.171
2018-06-01T01:50:50.577Z,0.182
2018-06-01T01:52:50.681Z,0.160
2018-06-01T01:54:49.850Z,0.131
2018-06-01T01:56:50.189Z,0.148
2018-06-01T01:58:50.361Z,0.211
2018-06-01T02:00:50.491Z,0.125
2018-06-01T02:02:50.656Z,0.137
2018-06-01T02:04:50.048Z,0.131
2018-06-01T02:06:50.328Z,0.148
2018-06-01T02:08:50.260Z,0.165
2018-06-01T02:10:50.479Z,0.182
2018-06-01T02:12:50.674Z,0.097
2018-06-01T02:14:49.820Z,0.160
2018-06-01T02:16:50.169Z,0.108
2018-06-01T02:18:50.287Z,0.194
2018-06-01T02:20:50.383Z,0.182
2018-06-01T02:22:50.528Z,0.165
2018-06-01T02:24:50.706Z,0.165
2018-06-01T02:26:49.982Z,0.143
2018-06-01T02:28:50.100Z,0.188
2018-06-01T02:30:50.229Z,0.171
2018-06-01T02:32:50.404Z,0.200
2018-06-01T02:34:49.998Z,0.177
2018-06-01T02:36:50.472Z,0.165
2018-06-01T02:38:50.636Z,0.165
2018-06-01T02:40:49.924Z,0.165
2018-06-01T02:42:50.196Z,0.143
2018-06-01T02:44:50.462Z,0.131
2018-06-01T02:46:50.719Z,0.131
2018-06-01T02:48:49.871Z,0.148
2018-06-01T02:50:50.041Z,0.131
2018-06-01T02:52:50.251Z,0.188
2018-06-01T02:54:50.444Z,0.165
2018-06-01T02:56:50.734Z,0.160
2018-06-01T02:58:49.903Z,0.137
2018-06-01T03:00:50.047Z,0.154
2018-06-01T03:02:50.259Z,0.211
2018-06-01T03:04:50.531Z,0.114
2018-06-01T03:06:50.747Z,0.182
2018-06-01T03:08:49.966Z,0.154
2018-06-01T03:10:50.195Z,0.165
2018-06-01T03:12:50.373Z,0.160
2018-06-01T03:14:50.545Z,0.177
2018-06-01T03:16:49.859Z,0.171
2018-06-01T03:18:50.032Z,0.171
2018-06-01T03:20:50.208Z,0.131
2018-06-01T03:22:50.435Z,0.114
2018-06-01T03:24:50.600Z,0.148
2018-06-01T03:26:49.872Z,0.171
2018-06-01T03:28:50.024Z,0.165
2018-06-01T03:30:50.149Z,0.177
2018-06-01T03:32:50.277Z,0.074
2018-06-01T03:34:50.547Z,0.143
2018-06-01T03:36:50.742Z,0.137
2018-06-01T03:38:49.861Z,0.154
2018-06-01T03:40:49.984Z,0.125
2018-06-01T03:42:50.198Z,0.160
2018-06-01T03:44:50.319Z,0.131
2018-06-01T03:46:50.552Z,0.160
2018-06-01T03:48:50.720Z,0.114
2018-06-01T03:50:49.900Z,0.143
2018-06-01T03:52:50.200Z,0.137
2018-06-01T03:54:50.392Z,0.171
2018-06-01T03:56:50.686Z,0.097
2018-06-01T03:58:49.796Z,0.160
2018-06-01T04:00:49.924Z,0.165
2018-06-01T04:02:50.077Z,0.114
2018-06-01T04:04:50.473Z,0.143
2018-06-01T04:06:50.705Z,0.182
2018-06-01T04:08:50.785Z,0.154
2018-06-01T04:10:49.844Z,0.097
2018-06-01T04:12:49.978Z,0.245
2018-06-01T04:14:50.131Z,0.165
2018-06-01T04:16:50.392Z,0.165
2018-06-01T04:18:50.487Z,0.194
2018-06-01T04:20:50.613Z,0.188
2018-06-01T04:22:49.915Z,0.211
2018-06-01T04:24:50.098Z,0.194
2018-06-01T04:26:50.038Z,0.177
2018-06-01T04:28:50.209Z,0.125
2018-06-01T04:30:50.384Z,0.177
2018-06-01T04:32:50.557Z,0.148
2018-06-01T04:34:49.924Z,0.137
2018-06-01T04:36:50.203Z,0.120
2018-06-01T04:38:50.368Z,0.182
2018-06-01T04:40:50.506Z,0.211
2018-06-01T04:42:50.670Z,0.137
2018-06-01T04:44:50.760Z,0.103
2018-06-01T04:46:50.018Z,0.177
2018-06-01T04:48:50.203Z,0.120
2018-06-01T04:50:50.318Z,0.125
2018-06-01T04:52:50.450Z,0.125
2018-06-01T04:54:50.547Z,0.188
2018-06-01T04:56:49.797Z,0.177
2018-06-01T04:58:49.896Z,0.171
2018-06-01T05:00:50.110Z,0.165
2018-06-01T05:02:50.205Z,0.165
2018-06-01T05:04:50.521Z,0.222
2018-06-01T05:06:50.721Z,0.160
2018-06-01T05:08:49.847Z,0.205
2018-06-01T05:10:50.046Z,0.251
2018-06-01T05:12:50.217Z,0.137
2018-06-01T05:14:50.423Z,0.154
2018-06-01T05:16:50.796Z,0.108
2018-06-01T05:18:50.019Z,0.131
2018-06-01T05:20:50.198Z,0.114
2018-06-01T05:22:50.441Z,0.222
2018-06-01T05:24:50.558Z,0.154
2018-06-01T05:26:49.853Z,0.200
2018-06-01T05:28:50.066Z,0.194
2018-06-01T05:30:50.276Z,0.125
2018-06-01T05:32:50.424Z,0.154
2018-06-01T05:34:50.709Z,0.148
2018-06-01T05:36:50.528Z,0.103
2018-06-01T05:38:50.757Z,0.154
2018-06-01T05:40:49.967Z,0.131
2018-06-01T05:42:50.268Z,0.160
2018-06-01T05:44:50.440Z,0.217
2018-06-01T05:46:50.703Z,0.131
2018-06-01T05:48:49.871Z,0.120
2018-06-01T05:50:49.980Z,0.165
2018-06-01T05:52:50.105Z,0.171
2018-06-01T05:54:50.255Z,0.171
2018-06-01T05:56:50.560Z,0.160
2018-06-01T05:58:50.783Z,0.143
2018-06-01T06:00:49.924Z,0.160
2018-06-01T06:02:50.082Z,0.108
2018-06-01T06:04:50.486Z,0.188
2018-06-01T06:06:50.806Z,0.165
2018-06-01T06:08:49.961Z,0.131
2018-06-01T06:10:50.128Z,0.194
2018-06-01T06:12:50.278Z,0.160
2018-06-01T06:14:50.400Z,0.125
2018-06-01T06:16:50.739Z,0.205
2018-06-01T06:18:49.887Z,0.154
2018-06-01T06:20:50.078Z,0.205
2018-06-01T06:22:50.199Z,0.143
2018-06-01T06:24:50.409Z,0.160
2018-06-01T06:26:50.680Z,0.103
2018-06-01T06:28:50.788Z,0.171
2018-06-01T06:30:50.025Z,0.171
2018-06-01T06:32:50.227Z,0.148
2018-06-01T06:34:50.525Z,0.154
2018-06-01T06:36:50.747Z,0.091
2018-06-01T06:38:49.858Z,0.143
2018-06-01T06:40:50.036Z,0.103
2018-06-01T06:42:50.245Z,0.143
2018-06-01T06:44:50.357Z,0.205
2018-06-01T06:46:50.612Z,0.177
2018-06-01T06:48:50.748Z,0.200
2018-06-01T06:50:49.930Z,0.160
2018-06-01T06:52:50.031Z,0.177
2018-06-01T06:54:50.258Z,0.148
2018-06-01T06:56:50.603Z,0.182
2018-06-01T06:58:50.762Z,0.125
2018-06-01T07:00:49.883Z,0.125
2018-06-01T07:02:50.021Z,0.125
2018-06-01T07:04:50.354Z,0.188
2018-06-01T07:06:50.609Z,0.097
2018-06-01T07:08:50.739Z,0.194
2018-06-01T07:10:49.839Z,0.120
2018-06-01T07:12:50.016Z,0.148
2018-06-01T07:14:50.228Z,0.143
2018-06-01T07:16:50.532Z,0.228
2018-06-01T07:18:50.679Z,0.137
2018-06-01T07:20:49.821Z,0.143
2018-06-01T07:22:49.961Z,0.143
2018-06-01T07:24:50.098Z,0.148
2018-06-01T07:26:50.405Z,0.171
2018-06-01T07:28:50.582Z,0.143
2018-06-01T07:30:50.740Z,0.154
2018-06-01T07:32:49.932Z,0.131
2018-06-01T07:34:50.391Z,0.143
2018-06-01T07:36:50.677Z,0.137
2018-06-01T07:38:51.285Z,0.165
2018-06-01T07:40:49.970Z,0.165
2018-06-01T07:42:50.179Z,0.108
2018-06-01T07:44:50.322Z,0.103
2018-06-01T07:46:50.948Z,0.171
2018-06-01T07:48:50.339Z,0.108
2018-06-01T07:50:50.550Z,0.091
2018-06-01T07:52:50.686Z,0.125
2018-06-01T07:54:49.828Z,0.165
2018-06-01T07:56:49.987Z,0.108
2018-06-01T07:58:50.146Z,0.211
2018-06-01T08:00:50.304Z,0.205
2018-06-01T08:02:50.451Z,0.182
2018-06-01T08:04:50.004Z,0.177
2018-06-01T08:06:50.236Z,0.154
2018-06-01T08:08:50.411Z,0.171
2018-06-01T08:10:50.666Z,0.160
2018-06-01T08:12:49.806Z,0.131
2018-06-01T08:14:50.511Z,0.165
2018-06-01T08:16:49.810Z,0.137
2018-06-01T08:18:49.963Z,0.182
2018-06-01T08:20:50.136Z,0.171
2018-06-01T08:22:50.314Z,0.177
2018-06-01T08:24:50.508Z,0.108
2018-06-01T08:26:49.813Z,0.205
2018-06-01T08:28:49.969Z,0.165
2018-06-01T08:30:50.197Z,0.103
2018-06-01T08:32:50.342Z,0.125
2018-06-01T08:34:50.760Z,0.125
2018-06-01T08:36:50.003Z,0.222
2018-06-01T08:38:50.210Z,0.222
2018-06-01T08:40:50.348Z,0.137
2018-06-01T08:42:50.605Z,0.108
2018-06-01T08:44:50.824Z,0.103
2018-06-01T08:46:50.040Z,0.165
2018-06-01T08:48:50.293Z,0.217
2018-06-01T08:50:50.440Z,0.217
2018-06-01T08:52:50.622Z,0.114
2018-06-01T08:54:50.741Z,0.160
2018-06-01T08:56:50.103Z,0.097
2018-06-01T08:58:50.326Z,0.131
2018-06-01T09:00:50.485Z,0.171
2018-06-01T09:02:50.745Z,0.148
2018-06-01T09:04:50.057Z,0.188
2018-06-01T09:06:50.417Z,0.148
2018-06-01T09:08:50.590Z,0.137
2018-06-01T09:10:50.789Z,0.171
2018-06-01T09:12:49.980Z,0.137
2018-06-01T09:14:50.160Z,0.125
2018-06-01T09:16:50.824Z,0.160
2018-06-01T09:18:50.142Z,0.108
2018-06-01T09:20:50.422Z,0.131
2018-06-01T09:22:50.559Z,0.160
2018-06-01T09:24:49.795Z,0.108
2018-06-01T09:26:50.054Z,0.120
2018-06-01T09:28:50.227Z,0.188
2018-06-01T09:30:50.438Z,0.165
2018-06-01T09:32:50.588Z,0.143
2018-06-01T09:34:49.996Z,0.154
2018-06-01T09:36:50.434Z,0.137
2018-06-01T09:38:50.603Z,0.114
2018-06-01T09:40:50.759Z,0.211
2018-06-01T09:42:49.910Z,0.125
2018-06-01T09:44:50.129Z,0.177
2018-06-01T09:46:50.407Z,0.137
2018-06-01T09:48:50.639Z,0.137
2018-06-01T09:50:50.787Z,0.148
2018-06-01T09:52:49.926Z,0.182
2018-06-01T09:54:50.111Z,0.137
2018-06-01T09:56:50.621Z,0.125
2018-06-01T09:58:49.949Z,0.137
2018-06-01T10:00:50.201Z,0.205
2018-06-01T10:02:50.446Z,0.177
2018-06-01T10:04:50.258Z,0.154
2018-06-01T10:06:50.596Z,0.171
2018-06-01T10:08:50.723Z,0.154
2018-06-01T10:10:49.901Z,0.131
2018-06-01T10:12:50.103Z,0.188
2018-06-01T10:14:50.290Z,0.097
2018-06-01T10:16:50.486Z,0.154
2018-06-01T10:18:50.650Z,0.137
2018-06-01T10:20:49.829Z,0.120
2018-06-01T10:22:49.914Z,0.131
2018-06-01T10:24:50.094Z,0.125
2018-06-01T10:26:50.393Z,0.120
2018-06-01T10:28:50.493Z,0.154
2018-06-01T10:30:50.628Z,0.131
2018-06-01T10:32:50.757Z,0.137
2018-06-01T10:34:50.262Z,0.114
2018-06-01T10:36:50.716Z,0.148
2018-06-01T10:38:49.858Z,0.160
2018-06-01T10:40:50.026Z,0.154
2018-06-01T10:42:50.281Z,0.148
2018-06-01T10:44:50.495Z,0.188
2018-06-01T10:46:50.802Z,0.148
2018-06-01T10:48:49.902Z,0.137
2018-06-01T10:50:50.021Z,0.148
2018-06-01T10:52:50.320Z,0.125
2018-06-01T10:54:50.469Z,0.177
2018-06-01T10:56:50.776Z,0.103
2018-06-01T10:58:49.971Z,0.154
2018-06-01T11:00:50.211Z,0.148
2018-06-01T11:02:50.353Z,0.171
2018-06-01T11:04:50.727Z,0.160
2018-06-01T11:06:50.023Z,0.120
2018-06-01T11:08:50.142Z,0.125
2018-06-01T11:10:50.249Z,0.194
2018-06-01T11:12:50.590Z,0.143
2018-06-01T11:14:50.732Z,0.154
2018-06-01T11:16:50.014Z,0.160
2018-06-01T11:18:50.209Z,0.143
2018-06-01T11:20:50.406Z,0.137
2018-06-01T11:22:50.599Z,0.143
2018-06-01T11:24:50.742Z,0.205
2018-06-01T11:26:50.066Z,0.154
2018-06-01T11:28:50.206Z,0.182
2018-06-01T11:30:50.389Z,0.137
2018-06-01T11:32:50.527Z,0.143
2018-06-01T11:34:49.963Z,0.182
2018-06-01T11:36:50.300Z,0.097
2018-06-01T11:38:50.425Z,0.097
2018-06-01T11:40:50.593Z,0.171
2018-06-01T11:42:50.780Z,0.091
2018-06-01T11:44:49.938Z,0.171
2018-06-01T11:46:50.275Z,0.171
2018-06-01T11:48:50.428Z,0.120
2018-06-01T11:50:50.656Z,0.165
2018-06-01T11:52:50.234Z,0.194
2018-06-01T11:54:50.443Z,0.114
2018-06-01T11:56:50.771Z,0.177
2018-06-01T11:58:49.967Z,0.177
2018-06-01T12:00:50.073Z,0.143
2018-06-01T12:02:50.191Z,0.234
2018-06-01T12:04:50.603Z,0.125
2018-06-01T12:06:49.907Z,0.137
2018-06-01T12:08:50.057Z,0.143
2018-06-01T12:10:50.405Z,0.143
2018-06-01T12:12:50.784Z,0.120
2018-06-01T12:14:49.930Z,0.188
2018-06-01T12:16:50.169Z,0.148
2018-06-01T12:18:50.339Z,0.114
2018-06-01T12:20:50.616Z,0.148
2018-06-01T12:22:49.900Z,0.171
2018-06-01T12:24:50.126Z,0.137
2018-06-01T12:26:50.475Z,0.137
2018-06-01T12:28:50.661Z,0.120
2018-06-01T12:30:50.790Z,0.143
2018-06-01T12:32:49.931Z,0.125
2018-06-01T12:34:50.525Z,0.165
2018-06-01T12:36:50.774Z,0.148
2018-06-01T12:38:49.915Z,0.120
2018-06-01T12:40:50.085Z,0.154
2018-06-01T12:42:50.319Z,0.137
2018-06-01T12:44:50.489Z,0.182
2018-06-01T12:46:49.921Z,0.177
2018-06-01T12:48:50.070Z,0.148
2018-06-01T12:50:50.421Z,0.125
2018-06-01T12:52:50.615Z,0.125
2018-06-01T12:56:50.363Z,0.143
2018-06-01T12:58:50.486Z,0.160
2018-06-01T13:00:50.697Z,0.177
2018-06-01T13:02:49.808Z,0.125
2018-06-01T13:04:50.173Z,0.114
2018-06-01T13:06:50.465Z,0.080
2018-06-01T13:08:50.873Z,0.182
2018-06-01T13:10:50.066Z,0.160
2018-06-01T13:12:50.314Z,0.000
2018-06-01T13:14:50.494Z,0.000
2018-06-01T13:16:50.683Z,0.000
2018-06-01T13:18:49.804Z,0.000
2018-06-01T13:20:50.623Z,0.000
2018-06-01T13:22:50.278Z,0.000
2018-06-01T13:24:50.486Z,0.000
2018-06-01T13:26:50.688Z,0.000
2018-06-01T13:28:49.868Z,0.000
2018-06-01T13:30:50.024Z,0.000
2018-06-01T13:32:50.232Z,0.000
2018-06-01T13:34:50.761Z,0.000
2018-06-01T13:36:50.024Z,0.000
2018-06-01T13:38:50.341Z,0.000
2018-06-01T13:40:50.784Z,0.000
2018-06-01T13:42:50.012Z,0.000
2018-06-01T13:44:50.528Z,0.000
2018-06-01T13:46:50.183Z,0.000
2018-06-01T13:48:50.390Z,0.000
2018-06-01T13:50:50.577Z,0.000
2018-06-01T13:52:50.709Z,0.000
2018-06-01T13:54:49.849Z,0.000
2018-06-01T13:56:50.083Z,0.000
2018-06-01T13:58:50.204Z,0.000
2018-06-01T14:00:50.429Z,0.000
2018-06-01T14:02:50.613Z,0.000
2018-06-01T14:04:50.007Z,0.000
2018-06-01T14:06:50.439Z,0.000
2018-06-01T14:08:50.655Z,0.000
2018-06-01T14:10:50.747Z,0.000
2018-06-01T14:12:49.957Z,0.000
2018-06-01T14:14:50.111Z,0.000
2018-06-01T14:16:50.416Z,0.000
2018-06-01T14:18:50.576Z,0.000
2018-06-01T14:20:50.599Z,0.000
2018-06-01T14:22:50.010Z,0.000
2018-06-01T14:24:50.248Z,0.000
2018-06-01T14:26:50.737Z,0.000
2018-06-01T14:28:50.040Z,0.000
2018-06-01T14:30:50.261Z,0.000
2018-06-01T14:32:49.844Z,0.000
2018-06-01T14:34:50.214Z,0.000
2018-06-01T14:36:50.443Z,0.000
2018-06-01T14:38:50.644Z,0.000
2018-06-01T14:40:50.073Z,0.000
2018-06-01T14:42:50.487Z,0.000
2018-06-01T14:44:50.654Z,0.000
2018-06-01T14:46:50.133Z,0.000
2018-06-01T14:48:50.387Z,0.000
2018-06-01T14:50:50.499Z,0.000
2018-06-01T14:52:50.703Z,0.000
2018-06-01T14:54:49.917Z,0.000
2018-06-01T14:56:50.214Z,0.000
2018-06-01T14:58:50.392Z,0.000
2018-06-01T15:00:50.548Z,0.000
2018-06-01T15:02:50.688Z,0.000
2018-06-01T15:04:50.022Z,0.000
2018-06-01T15:06:50.418Z,0.029
2018-06-01T15:08:50.602Z,0.000
2018-06-01T15:10:50.725Z,0.160
2018-06-01T15:12:49.918Z,0.160
2018-06-01T15:14:50.027Z,0.000
2018-06-01T15:16:50.270Z,0.000
2018-06-01T15:18:50.615Z,0.000
2018-06-01T15:20:49.830Z,0.000
2018-06-01T15:22:50.032Z,0.000
2018-06-01T15:24:50.240Z,0.000
2018-06-01T15:26:50.631Z,0.000
2018-06-01T15:28:49.823Z,0.000
2018-06-01T15:30:50.105Z,0.000
2018-06-01T15:32:50.346Z,0.000
2018-06-01T15:34:50.692Z,0.000
2018-06-01T15:36:50.073Z,0.000
2018-06-01T15:38:50.281Z,0.000
2018-06-01T15:40:50.918Z,0.000
2018-06-01T15:42:50.242Z,0.000
2018-06-01T15:44:50.385Z,0.000
2018-06-01T15:46:50.693Z,0.000
2018-06-01T15:48:49.863Z,0.000
2018-06-01T15:50:50.034Z,0.000
2018-06-01T15:52:50.287Z,0.000
2018-06-01T15:54:50.462Z,0.000
2018-06-01T15:56:50.748Z,0.000
2018-06-01T15:58:50.267Z,0.000
2018-06-01T16:00:50.474Z,0.000
2018-06-01T16:02:50.636Z,0.000
2018-06-01T16:04:50.138Z,0.000
2018-06-01T16:06:50.385Z,0.000
2018-06-01T16:08:50.574Z,0.000
2018-06-01T16:10:50.754Z,0.000
2018-06-01T16:12:49.921Z,0.000
2018-06-01T16:14:50.274Z,0.000
2018-06-01T16:16:50.534Z,0.000
2018-06-01T16:18:50.728Z,0.000
2018-06-01T16:20:49.880Z,0.000
2018-06-01T16:22:50.180Z,0.000
2018-06-01T16:24:50.355Z,0.000
2018-06-01T16:26:50.669Z,0.000
2018-06-01T16:28:49.867Z,0.000
2018-06-01T16:30:50.086Z,0.000
2018-06-01T16:32:50.212Z,0.000
2018-06-01T16:34:50.545Z,0.000
2018-06-01T16:36:49.869Z,0.000
2018-06-01T16:38:50.043Z,0.000
2018-06-01T16:40:50.306Z,0.000
2018-06-01T16:42:50.531Z,0.000
2018-06-01T16:44:50.692Z,0.000
2018-06-01T16:46:50.015Z,0.040
2018-06-01T16:48:50.223Z,0.108
2018-06-01T16:50:50.413Z,0.177
2018-06-01T16:52:50.554Z,0.177
2018-06-01T16:54:50.787Z,0.188
2018-06-01T16:56:50.154Z,0.103
2018-06-01T16:58:50.330Z,0.143
2018-06-01T17:00:50.667Z,0.154
2018-06-01T17:02:49.815Z,0.086
2018-06-01T17:04:50.191Z,0.114
2018-06-01T17:06:50.494Z,0.143
2018-06-01T17:08:50.706Z,0.120
2018-06-01T17:10:49.986Z,0.125
2018-06-01T17:12:50.111Z,0.120
2018-06-01T17:14:50.342Z,0.120
2018-06-01T17:16:50.664Z,0.154
2018-06-01T17:18:49.888Z,0.137
2018-06-01T17:20:50.100Z,0.154
2018-06-01T17:22:50.271Z,0.171
2018-06-01T17:24:50.469Z,0.097
2018-06-01T17:26:49.821Z,0.182
2018-06-01T17:28:49.970Z,0.188
2018-06-01T17:30:50.166Z,0.103
2018-06-01T17:32:50.267Z,0.131
2018-06-01T17:34:50.659Z,0.171
2018-06-01T17:36:50.087Z,0.154
2018-06-01T17:38:50.327Z,0.154
2018-06-01T17:40:50.514Z,0.131
2018-06-01T17:42:50.731Z,0.131
2018-06-01T17:44:49.875Z,0.205
2018-06-01T17:46:50.190Z,0.148
2018-06-01T17:48:50.511Z,0.171
2018-06-01T17:50:50.710Z,0.165
2018-06-01T17:52:49.874Z,0.165
2018-06-01T17:54:50.058Z,0.131
2018-06-01T17:56:50.386Z,0.137
2018-06-01T17:58:50.558Z,0.137
2018-06-01T18:00:50.785Z,0.137
2018-06-01T18:02:49.916Z,0.154
2018-06-01T18:04:50.224Z,0.188
2018-06-01T18:06:50.901Z,0.177
2018-06-01T18:08:50.256Z,0.188
2018-06-01T18:10:50.456Z,0.131
2018-06-01T18:12:50.718Z,0.143
2018-06-01T18:14:49.971Z,0.131
2018-06-01T18:16:50.299Z,0.148
2018-06-01T18:18:50.487Z,0.165
2018-06-01T18:20:50.715Z,0.171
2018-06-01T18:22:49.842Z,0.177
2018-06-01T18:24:50.043Z,0.177
2018-06-01T18:26:50.438Z,0.217
2018-06-01T18:28:50.644Z,0.217
2018-06-01T18:30:49.882Z,0.217
2018-06-01T18:32:50.151Z,0.097
2018-06-01T18:34:50.596Z,0.160
2018-06-01T18:36:50.277Z,0.143
2018-06-01T18:38:50.762Z,0.125
2018-06-01T18:40:50.322Z,0.125
2018-06-01T18:42:49.859Z,0.160
2018-06-01T18:44:50.318Z,0.086
2018-06-01T18:46:50.807Z,0.165
2018-06-01T18:48:50.268Z,0.154
2018-06-01T18:50:50.710Z,0.171
2018-06-01T18:52:50.167Z,0.165
2018-06-01T18:54:50.494Z,0.165
2018-06-01T18:56:49.943Z,0.103
2018-06-01T18:58:50.290Z,0.103
2018-06-01T19:00:50.638Z,0.171
2018-06-01T19:02:50.042Z,0.171
2018-06-01T19:04:50.753Z,0.120
2018-06-01T19:06:50.362Z,0.171
2018-06-01T19:08:50.721Z,0.120
2018-06-01T19:10:50.199Z,0.143
2018-06-01T19:12:50.591Z,0.171
2018-06-01T19:14:49.976Z,0.160
2018-06-01T19:16:50.451Z,0.165
2018-06-01T19:18:49.813Z,0.143
2018-06-01T19:20:50.099Z,0.080
2018-06-01T19:22:50.373Z,0.165
2018-06-01T19:24:50.752Z,0.171
2018-06-01T19:26:50.157Z,0.182
2018-06-01T19:28:50.433Z,0.160
2018-06-01T19:30:50.826Z,0.108
2018-06-01T19:32:50.355Z,0.143
2018-06-01T19:34:49.951Z,0.114
2018-06-01T19:36:50.440Z,0.125
2018-06-01T19:38:50.737Z,0.148
2018-06-01T19:40:50.129Z,0.143
2018-06-01T19:42:50.395Z,0.125
2018-06-01T19:44:50.725Z,0.188
2018-06-01T19:46:50.127Z,0.091
2018-06-01T19:48:50.462Z,0.086
2018-06-01T19:50:50.655Z,0.182
2018-06-01T19:52:49.907Z,0.097
2018-06-01T19:54:50.184Z,0.154
2018-06-01T19:56:50.533Z,0.171
2018-06-01T19:58:49.930Z,0.182
2018-06-01T20:00:50.162Z,0.137
2018-06-01T20:02:50.385Z,0.120
2018-06-01T20:04:50.098Z,0.137
2018-06-01T20:06:50.660Z,0.143
2018-06-01T20:08:49.868Z,0.154
2018-06-01T20:10:50.026Z,0.091
2018-06-01T20:12:50.233Z,0.160
2018-06-01T20:14:50.443Z,0.125
2018-06-01T20:16:49.874Z,0.177
2018-06-01T20:18:50.156Z,0.114
2018-06-01T20:20:50.367Z,0.131
2018-06-01T20:22:50.650Z,0.131
2018-06-01T20:24:50.031Z,0.114
2018-06-01T20:26:50.435Z,0.148
2018-06-01T20:28:49.859Z,0.143
2018-06-01T20:30:50.163Z,0.171
2018-06-01T20:32:50.433Z,0.160
2018-06-01T20:34:49.821Z,0.211
2018-06-01T20:36:50.155Z,0.148
2018-06-01T20:38:50.401Z,0.131
2018-06-01T20:40:50.779Z,0.165
2018-06-01T20:42:50.222Z,0.160
2018-06-01T20:44:50.494Z,0.103
2018-06-01T20:46:50.049Z,0.143
2018-06-01T20:48:50.323Z,0.171
2018-06-01T20:50:50.573Z,0.217
2018-06-01T20:52:50.759Z,0.108
2018-06-01T20:54:49.917Z,0.114
2018-06-01T20:56:50.329Z,0.137
2018-06-01T20:58:50.689Z,0.148
2018-06-01T21:00:50.007Z,0.131
2018-06-01T21:02:50.388Z,0.125
2018-06-01T21:04:50.025Z,0.182
2018-06-01T21:06:50.508Z,0.131
2018-06-01T21:08:50.696Z,0.154
2018-06-01T21:10:49.928Z,0.160
2018-06-01T21:12:50.271Z,0.125
2018-06-01T21:14:50.474Z,0.137
2018-06-01T21:16:49.896Z,0.114
2018-06-01T21:18:50.170Z,0.182
2018-06-01T21:20:50.423Z,0.154
2018-06-01T21:22:50.660Z,0.108
2018-06-01T21:24:50.004Z,0.120
2018-06-01T21:26:50.372Z,0.182
2018-06-01T21:28:50.585Z,0.108
2018-06-01T21:30:49.830Z,0.171
2018-06-01T21:32:50.101Z,0.205
2018-06-01T21:34:50.565Z,0.131
2018-06-01T21:36:49.900Z,0.148
2018-06-01T21:38:50.200Z,0.131
2018-06-01T21:40:50.525Z,0.160
2018-06-01T21:42:50.855Z,0.108
2018-06-01T21:44:50.169Z,0.165
2018-06-01T21:46:50.555Z,0.154
2018-06-01T21:48:50.751Z,0.120
2018-06-01T21:50:50.005Z,0.165
2018-06-01T21:52:50.330Z,0.182
2018-06-01T21:54:50.669Z,0.165
2018-06-01T21:56:50.000Z,0.143
2018-06-01T21:58:50.359Z,0.200
2018-06-01T22:00:50.626Z,0.165
2018-06-01T22:02:49.914Z,0.160
2018-06-01T22:04:50.329Z,0.200
2018-06-01T22:06:50.798Z,0.131
2018-06-01T22:08:50.164Z,0.137
2018-06-01T22:10:50.505Z,0.165
2018-06-01T22:12:50.779Z,0.160
2018-06-01T22:14:50.133Z,0.182
2018-06-01T22:16:50.673Z,0.154
2018-06-01T22:18:50.116Z,0.154
2018-06-01T22:20:50.438Z,0.165
2018-06-01T22:22:50.731Z,0.188
2018-06-01T22:24:50.007Z,0.188
2018-06-01T22:26:50.388Z,0.160
2018-06-01T22:28:50.710Z,0.182
2018-06-01T22:30:50.023Z,0.177
2018-06-01T22:32:50.393Z,0.131
2018-06-01T22:34:50.210Z,0.114
2018-06-01T22:36:50.588Z,0.114
2018-06-01T22:38:50.013Z,0.114
2018-06-01T22:40:50.361Z,0.114
2018-06-01T22:42:50.762Z,0.171
2018-06-01T22:44:50.118Z,0.143
2018-06-01T22:46:50.614Z,0.097
2018-06-01T22:48:49.980Z,0.154
2018-06-01T22:50:50.393Z,0.114
2018-06-01T22:52:50.930Z,0.131
2018-06-01T22:54:50.330Z,0.131
2018-06-01T22:56:50.798Z,0.171
2018-06-01T22:58:50.076Z,0.125
2018-06-01T23:00:50.450Z,0.182
2018-06-01T23:02:49.830Z,0.143
2018-06-01T23:04:50.407Z,0.154
2018-06-01T23:06:49.866Z,0.103
2018-06-01T23:08:50.165Z,0.125
2018-06-01T23:10:50.579Z,0.177
2018-06-01T23:12:49.925Z,0.171
2018-06-01T23:14:50.275Z,0.125
2018-06-01T23:16:50.753Z,0.171
2018-06-01T23:18:50.155Z,0.171
2018-06-01T23:20:50.534Z,0.171
2018-06-01T23:22:49.978Z,0.200
2018-06-01T23:24:50.329Z,0.137
2018-06-01T23:26:50.749Z,0.114
2018-06-01T23:28:50.012Z,0.114
2018-06-01T23:30:50.424Z,0.171
2018-06-01T23:32:50.780Z,0.137
2018-06-01T23:34:50.323Z,0.154
2018-06-01T23:36:50.723Z,0.143
2018-06-01T23:38:49.933Z,0.120
2018-06-01T23:40:50.201Z,0.143
2018-06-01T23:42:50.524Z,0.125
2018-06-01T23:44:49.897Z,0.165
2018-06-01T23:46:50.466Z,0.171
2018-06-01T23:48:50.782Z,0.131
2018-06-01T23:50:50.075Z,0.177
2018-06-01T23:52:50.463Z,0.125
2018-06-01T23:54:50.749Z,0.182
2018-06-01T23:56:50.160Z,0.114
2018-06-01T23:58:50.500Z,0.125
